sensor_id;sensor_type;location;lat;lon;timestamp;temperature;humidity
10702;DHT22;5402;50.004;8.246;2022-12-08T00:00:53;4.20;99.90
10702;DHT22;5402;50.004;8.246;2022-12-08T00:03:19;4.20;99.90
10702;DHT22;5402;50.004;8.246;2022-12-08T00:05:48;4.20;99.90
10702;DHT22;5402;50.004;8.246;2022-12-08T00:08:32;4.10;99.90
10702;DHT22;5402;50.004;8.246;2022-12-08T00:11:18;4.20;99.90
10702;DHT22;5402;50.004;8.246;2022-12-08T00:13:45;4.30;99.90
10702;DHT22;5402;50.004;8.246;2022-12-08T00:16:12;4.30;99.90
10702;DHT22;5402;50.004;8.246;2022-12-08T00:18:39;4.30;99.90
10702;DHT22;5402;50.004;8.246;2022-12-08T00:21:07;4.30;99.90
10702;DHT22;5402;50.004;8.246;2022-12-08T00:23:34;4.30;99.90
10702;DHT22;5402;50.004;8.246;2022-12-08T00:26:02;4.40;99.90
10702;DHT22;5402;50.004;8.246;2022-12-08T00:28:28;4.40;99.90
10702;DHT22;5402;50.004;8.246;2022-12-08T00:30:55;4.40;99.90
10702;DHT22;5402;50.004;8.246;2022-12-08T00:33:22;4.40;99.90
10702;DHT22;5402;50.004;8.246;2022-12-08T00:35:49;4.40;99.90
10702;DHT22;5402;50.004;8.246;2022-12-08T00:38:17;4.40;99.90
10702;DHT22;5402;50.004;8.246;2022-12-08T00:40:44;4.40;99.90
10702;DHT22;5402;50.004;8.246;2022-12-08T00:43:11;4.40;99.90
10702;DHT22;5402;50.004;8.246;2022-12-08T00:45:39;4.40;99.90
10702;DHT22;5402;50.004;8.246;2022-12-08T00:48:06;4.40;99.90
10702;DHT22;5402;50.004;8.246;2022-12-08T00:50:33;4.50;99.90
10702;DHT22;5402;50.004;8.246;2022-12-08T00:53:00;4.50;99.90
10702;DHT22;5402;50.004;8.246;2022-12-08T00:55:28;4.50;99.90
10702;DHT22;5402;50.004;8.246;2022-12-08T00:57:55;4.40;99.90
10702;DHT22;5402;50.004;8.246;2022-12-08T01:00:21;4.50;99.90
10702;DHT22;5402;50.004;8.246;2022-12-08T01:02:48;4.50;99.90
10702;DHT22;5402;50.004;8.246;2022-12-08T01:05:15;4.50;99.90
10702;DHT22;5402;50.004;8.246;2022-12-08T01:07:42;4.40;99.90
10702;DHT22;5402;50.004;8.246;2022-12-08T01:10:08;4.40;99.90
10702;DHT22;5402;50.004;8.246;2022-12-08T01:12:37;4.40;99.90
10702;DHT22;5402;50.004;8.246;2022-12-08T01:15:04;4.40;99.90
10702;DHT22;5402;50.004;8.246;2022-12-08T01:17:31;4.40;99.90
10702;DHT22;5402;50.004;8.246;2022-12-08T01:19:57;4.50;99.90
10702;DHT22;5402;50.004;8.246;2022-12-08T01:22:26;4.50;99.90
10702;DHT22;5402;50.004;8.246;2022-12-08T01:24:53;4.50;99.90
10702;DHT22;5402;50.004;8.246;2022-12-08T01:27:20;4.50;99.90
10702;DHT22;5402;50.004;8.246;2022-12-08T01:29:48;4.50;99.90
10702;DHT22;5402;50.004;8.246;2022-12-08T01:32:14;4.50;99.90
10702;DHT22;5402;50.004;8.246;2022-12-08T01:34:41;4.40;99.90
10702;DHT22;5402;50.004;8.246;2022-12-08T01:37:08;4.40;99.90
10702;DHT22;5402;50.004;8.246;2022-12-08T01:39:37;4.50;99.90
10702;DHT22;5402;50.004;8.246;2022-12-08T01:42:05;4.40;99.90
10702;DHT22;5402;50.004;8.246;2022-12-08T01:44:56;4.50;99.90
10702;DHT22;5402;50.004;8.246;2022-12-08T01:47:28;4.40;99.90
10702;DHT22;5402;50.004;8.246;2022-12-08T01:49:56;4.40;99.90
10702;DHT22;5402;50.004;8.246;2022-12-08T01:52:28;4.40;99.90
10702;DHT22;5402;50.004;8.246;2022-12-08T01:54:59;4.40;99.90
10702;DHT22;5402;50.004;8.246;2022-12-08T01:57:29;4.20;99.90
10702;DHT22;5402;50.004;8.246;2022-12-08T02:00:00;4.20;99.90
10702;DHT22;5402;50.004;8.246;2022-12-08T02:02:33;4.10;99.90
10702;DHT22;5402;50.004;8.246;2022-12-08T02:05:02;4.10;99.90
10702;DHT22;5402;50.004;8.246;2022-12-08T02:07:29;4.10;99.90
10702;DHT22;5402;50.004;8.246;2022-12-08T02:09:56;4.00;99.90
10702;DHT22;5402;50.004;8.246;2022-12-08T02:12:23;4.00;99.90
10702;DHT22;5402;50.004;8.246;2022-12-08T02:14:50;3.90;99.90
10702;DHT22;5402;50.004;8.246;2022-12-08T02:17:37;3.80;99.90
10702;DHT22;5402;50.004;8.246;2022-12-08T02:20:36;3.70;99.90
10702;DHT22;5402;50.004;8.246;2022-12-08T02:23:10;3.60;99.90
10702;DHT22;5402;50.004;8.246;2022-12-08T02:25:54;3.60;99.90
10702;DHT22;5402;50.004;8.246;2022-12-08T02:28:47;3.50;99.90
10702;DHT22;5402;50.004;8.246;2022-12-08T02:31:25;3.50;99.90
10702;DHT22;5402;50.004;8.246;2022-12-08T02:34:17;3.40;99.90
10702;DHT22;5402;50.004;8.246;2022-12-08T02:36:52;3.40;99.90
10702;DHT22;5402;50.004;8.246;2022-12-08T02:39:33;3.40;99.90
10702;DHT22;5402;50.004;8.246;2022-12-08T02:42:05;3.40;99.90
10702;DHT22;5402;50.004;8.246;2022-12-08T02:44:37;3.40;99.90
10702;DHT22;5402;50.004;8.246;2022-12-08T02:47:08;3.40;99.90
10702;DHT22;5402;50.004;8.246;2022-12-08T02:49:38;3.40;99.90
10702;DHT22;5402;50.004;8.246;2022-12-08T02:52:40;3.30;99.90
10702;DHT22;5402;50.004;8.246;2022-12-08T02:55:19;3.30;99.90
10702;DHT22;5402;50.004;8.246;2022-12-08T02:58:00;3.30;99.90
10702;DHT22;5402;50.004;8.246;2022-12-08T03:00:38;3.20;99.90
10702;DHT22;5402;50.004;8.246;2022-12-08T03:03:17;3.10;99.90
10702;DHT22;5402;50.004;8.246;2022-12-08T03:05:56;3.10;99.90
10702;DHT22;5402;50.004;8.246;2022-12-08T03:08:30;3.10;99.90
10702;DHT22;5402;50.004;8.246;2022-12-08T03:11:01;3.10;99.90
10702;DHT22;5402;50.004;8.246;2022-12-08T03:13:33;3.10;99.90
10702;DHT22;5402;50.004;8.246;2022-12-08T03:16:00;3.10;99.90
10702;DHT22;5402;50.004;8.246;2022-12-08T03:18:31;3.10;99.90
10702;DHT22;5402;50.004;8.246;2022-12-08T03:21:03;3.10;99.90
10702;DHT22;5402;50.004;8.246;2022-12-08T03:23:31;3.10;99.90
10702;DHT22;5402;50.004;8.246;2022-12-08T03:26:01;3.10;99.90
10702;DHT22;5402;50.004;8.246;2022-12-08T03:28:30;3.10;99.90
10702;DHT22;5402;50.004;8.246;2022-12-08T03:30:59;3.00;99.90
10702;DHT22;5402;50.004;8.246;2022-12-08T03:33:30;3.10;99.90
10702;DHT22;5402;50.004;8.246;2022-12-08T03:35:58;3.10;99.90
10702;DHT22;5402;50.004;8.246;2022-12-08T03:38:36;3.20;99.90
10702;DHT22;5402;50.004;8.246;2022-12-08T03:41:03;3.20;99.90
10702;DHT22;5402;50.004;8.246;2022-12-08T03:43:46;3.30;99.90
10702;DHT22;5402;50.004;8.246;2022-12-08T03:46:13;3.30;99.90
10702;DHT22;5402;50.004;8.246;2022-12-08T03:48:41;3.30;99.90
10702;DHT22;5402;50.004;8.246;2022-12-08T03:51:08;3.20;99.90
10702;DHT22;5402;50.004;8.246;2022-12-08T03:53:36;3.30;99.90
10702;DHT22;5402;50.004;8.246;2022-12-08T03:56:04;3.30;99.90
10702;DHT22;5402;50.004;8.246;2022-12-08T03:58:31;3.20;99.90
10702;DHT22;5402;50.004;8.246;2022-12-08T04:00:58;3.10;99.90
10702;DHT22;5402;50.004;8.246;2022-12-08T04:03:25;3.10;99.90
10702;DHT22;5402;50.004;8.246;2022-12-08T04:05:51;3.10;99.90
10702;DHT22;5402;50.004;8.246;2022-12-08T04:08:18;3.10;99.90
10702;DHT22;5402;50.004;8.246;2022-12-08T04:10:46;3.20;99.90
10702;DHT22;5402;50.004;8.246;2022-12-08T04:13:13;3.20;99.90
10702;DHT22;5402;50.004;8.246;2022-12-08T04:15:44;3.30;99.90
10702;DHT22;5402;50.004;8.246;2022-12-08T04:18:11;3.40;99.90
10702;DHT22;5402;50.004;8.246;2022-12-08T04:20:38;3.50;99.90
10702;DHT22;5402;50.004;8.246;2022-12-08T04:23:05;3.50;99.90
10702;DHT22;5402;50.004;8.246;2022-12-08T04:25:32;3.50;99.90
10702;DHT22;5402;50.004;8.246;2022-12-08T04:28:00;3.50;99.90
10702;DHT22;5402;50.004;8.246;2022-12-08T04:30:27;3.50;99.90
10702;DHT22;5402;50.004;8.246;2022-12-08T04:32:54;3.50;99.90
10702;DHT22;5402;50.004;8.246;2022-12-08T04:35:21;3.50;99.90
10702;DHT22;5402;50.004;8.246;2022-12-08T04:37:48;3.50;99.90
10702;DHT22;5402;50.004;8.246;2022-12-08T04:40:15;3.50;99.90
10702;DHT22;5402;50.004;8.246;2022-12-08T04:42:41;3.60;99.90
10702;DHT22;5402;50.004;8.246;2022-12-08T04:45:10;3.60;99.90
10702;DHT22;5402;50.004;8.246;2022-12-08T04:47:37;3.60;99.90
10702;DHT22;5402;50.004;8.246;2022-12-08T04:50:05;3.60;99.90
10702;DHT22;5402;50.004;8.246;2022-12-08T04:52:32;3.60;99.90
10702;DHT22;5402;50.004;8.246;2022-12-08T04:54:59;3.70;99.90
10702;DHT22;5402;50.004;8.246;2022-12-08T04:57:26;3.70;99.90
10702;DHT22;5402;50.004;8.246;2022-12-08T04:59:53;3.70;99.90
10702;DHT22;5402;50.004;8.246;2022-12-08T05:02:21;3.70;99.90
10702;DHT22;5402;50.004;8.246;2022-12-08T05:04:48;3.70;99.90
10702;DHT22;5402;50.004;8.246;2022-12-08T05:07:15;3.70;99.90
10702;DHT22;5402;50.004;8.246;2022-12-08T05:09:41;3.70;99.90
10702;DHT22;5402;50.004;8.246;2022-12-08T05:12:09;3.70;99.90
10702;DHT22;5402;50.004;8.246;2022-12-08T05:14:36;3.80;99.90
10702;DHT22;5402;50.004;8.246;2022-12-08T05:17:03;3.60;99.90
10702;DHT22;5402;50.004;8.246;2022-12-08T05:19:31;3.70;99.90
10702;DHT22;5402;50.004;8.246;2022-12-08T05:21:58;3.60;99.90
10702;DHT22;5402;50.004;8.246;2022-12-08T05:24:25;3.70;99.90
10702;DHT22;5402;50.004;8.246;2022-12-08T05:26:51;3.60;99.90
10702;DHT22;5402;50.004;8.246;2022-12-08T05:29:18;3.70;99.90
10702;DHT22;5402;50.004;8.246;2022-12-08T05:31:45;3.70;99.90
10702;DHT22;5402;50.004;8.246;2022-12-08T05:34:12;3.80;99.90
10702;DHT22;5402;50.004;8.246;2022-12-08T05:36:40;3.80;99.90
10702;DHT22;5402;50.004;8.246;2022-12-08T05:39:07;3.80;99.90
10702;DHT22;5402;50.004;8.246;2022-12-08T05:41:34;3.70;99.90
10702;DHT22;5402;50.004;8.246;2022-12-08T05:44:01;3.80;99.90
10702;DHT22;5402;50.004;8.246;2022-12-08T05:46:27;3.80;99.90
10702;DHT22;5402;50.004;8.246;2022-12-08T05:48:54;3.80;99.90
10702;DHT22;5402;50.004;8.246;2022-12-08T05:51:22;3.80;99.90
10702;DHT22;5402;50.004;8.246;2022-12-08T05:53:51;3.90;99.90
10702;DHT22;5402;50.004;8.246;2022-12-08T05:56:19;3.80;99.90
10702;DHT22;5402;50.004;8.246;2022-12-08T05:58:47;3.80;99.90
10702;DHT22;5402;50.004;8.246;2022-12-08T06:01:21;3.80;99.90
10702;DHT22;5402;50.004;8.246;2022-12-08T06:03:48;3.80;99.90
10702;DHT22;5402;50.004;8.246;2022-12-08T06:06:16;3.80;99.90
10702;DHT22;5402;50.004;8.246;2022-12-08T06:08:42;3.80;99.90
10702;DHT22;5402;50.004;8.246;2022-12-08T06:11:16;3.80;99.90
10702;DHT22;5402;50.004;8.246;2022-12-08T06:13:43;3.80;99.90
10702;DHT22;5402;50.004;8.246;2022-12-08T06:16:10;3.80;99.90
10702;DHT22;5402;50.004;8.246;2022-12-08T06:18:37;3.80;99.90
10702;DHT22;5402;50.004;8.246;2022-12-08T06:21:04;3.80;99.90
10702;DHT22;5402;50.004;8.246;2022-12-08T06:23:31;3.80;99.90
10702;DHT22;5402;50.004;8.246;2022-12-08T06:26:00;3.80;99.90
10702;DHT22;5402;50.004;8.246;2022-12-08T06:28:29;3.90;99.90
10702;DHT22;5402;50.004;8.246;2022-12-08T06:30:55;3.90;99.90
10702;DHT22;5402;50.004;8.246;2022-12-08T06:33:23;3.80;99.90
10702;DHT22;5402;50.004;8.246;2022-12-08T06:35:49;3.90;99.90
10702;DHT22;5402;50.004;8.246;2022-12-08T06:38:16;3.90;99.90
10702;DHT22;5402;50.004;8.246;2022-12-08T06:40:43;3.90;99.90
10702;DHT22;5402;50.004;8.246;2022-12-08T06:43:10;3.90;99.90
10702;DHT22;5402;50.004;8.246;2022-12-08T06:45:40;3.90;99.90
10702;DHT22;5402;50.004;8.246;2022-12-08T06:48:07;3.90;99.90
10702;DHT22;5402;50.004;8.246;2022-12-08T06:50:33;3.90;99.90
10702;DHT22;5402;50.004;8.246;2022-12-08T06:53:00;3.90;99.90
10702;DHT22;5402;50.004;8.246;2022-12-08T06:55:27;3.90;99.90
10702;DHT22;5402;50.004;8.246;2022-12-08T06:57:54;3.90;99.90
10702;DHT22;5402;50.004;8.246;2022-12-08T07:00:21;3.90;99.90
10702;DHT22;5402;50.004;8.246;2022-12-08T07:02:50;3.90;99.90
10702;DHT22;5402;50.004;8.246;2022-12-08T07:05:17;4.00;99.90
10702;DHT22;5402;50.004;8.246;2022-12-08T07:07:43;3.90;99.90
10702;DHT22;5402;50.004;8.246;2022-12-08T07:10:10;3.90;99.90
10702;DHT22;5402;50.004;8.246;2022-12-08T07:12:37;4.00;99.90
10702;DHT22;5402;50.004;8.246;2022-12-08T07:15:05;4.00;99.90
10702;DHT22;5402;50.004;8.246;2022-12-08T07:17:32;4.00;99.90
10702;DHT22;5402;50.004;8.246;2022-12-08T07:20:00;4.00;99.90
10702;DHT22;5402;50.004;8.246;2022-12-08T07:22:26;4.10;99.90
10702;DHT22;5402;50.004;8.246;2022-12-08T07:24:53;4.10;99.90
10702;DHT22;5402;50.004;8.246;2022-12-08T07:27:20;4.10;99.90
10702;DHT22;5402;50.004;8.246;2022-12-08T07:29:47;4.10;99.90
10702;DHT22;5402;50.004;8.246;2022-12-08T07:32:13;4.10;99.90
10702;DHT22;5402;50.004;8.246;2022-12-08T07:34:40;4.20;99.90
10702;DHT22;5402;50.004;8.246;2022-12-08T07:37:09;4.10;99.90
10702;DHT22;5402;50.004;8.246;2022-12-08T07:39:35;4.10;99.90
10702;DHT22;5402;50.004;8.246;2022-12-08T07:42:02;4.10;99.90
10702;DHT22;5402;50.004;8.246;2022-12-08T07:44:29;4.20;99.90
10702;DHT22;5402;50.004;8.246;2022-12-08T07:46:56;4.20;99.90
10702;DHT22;5402;50.004;8.246;2022-12-08T07:49:22;4.20;99.90
10702;DHT22;5402;50.004;8.246;2022-12-08T07:51:49;4.30;99.90
10702;DHT22;5402;50.004;8.246;2022-12-08T07:54:17;4.20;99.90
10702;DHT22;5402;50.004;8.246;2022-12-08T07:56:44;4.30;99.90
10702;DHT22;5402;50.004;8.246;2022-12-08T07:59:11;4.30;99.90
10702;DHT22;5402;50.004;8.246;2022-12-08T08:01:39;4.40;99.90
10702;DHT22;5402;50.004;8.246;2022-12-08T08:04:06;4.40;99.90
10702;DHT22;5402;50.004;8.246;2022-12-08T08:06:33;4.40;99.90
10702;DHT22;5402;50.004;8.246;2022-12-08T08:09:00;4.40;99.90
10702;DHT22;5402;50.004;8.246;2022-12-08T08:11:29;4.40;99.90
10702;DHT22;5402;50.004;8.246;2022-12-08T08:13:56;4.40;99.90
10702;DHT22;5402;50.004;8.246;2022-12-08T08:16:23;4.40;99.90
10702;DHT22;5402;50.004;8.246;2022-12-08T08:18:50;4.50;99.90
10702;DHT22;5402;50.004;8.246;2022-12-08T08:21:19;4.50;99.90
10702;DHT22;5402;50.004;8.246;2022-12-08T08:23:46;4.50;99.90
10702;DHT22;5402;50.004;8.246;2022-12-08T08:26:13;4.40;99.90
10702;DHT22;5402;50.004;8.246;2022-12-08T08:28:41;4.40;99.90
10702;DHT22;5402;50.004;8.246;2022-12-08T08:31:10;4.40;99.90
10702;DHT22;5402;50.004;8.246;2022-12-08T08:33:37;4.40;99.90
10702;DHT22;5402;50.004;8.246;2022-12-08T08:36:06;4.40;99.90
10702;DHT22;5402;50.004;8.246;2022-12-08T08:38:34;4.50;99.90
10702;DHT22;5402;50.004;8.246;2022-12-08T08:41:06;4.50;99.90
10702;DHT22;5402;50.004;8.246;2022-12-08T08:43:33;4.50;99.90
10702;DHT22;5402;50.004;8.246;2022-12-08T08:46:03;4.60;99.90
10702;DHT22;5402;50.004;8.246;2022-12-08T08:48:30;4.60;99.90
10702;DHT22;5402;50.004;8.246;2022-12-08T08:50:57;4.60;99.90
10702;DHT22;5402;50.004;8.246;2022-12-08T08:53:24;4.70;99.90
10702;DHT22;5402;50.004;8.246;2022-12-08T08:55:51;4.60;99.90
10702;DHT22;5402;50.004;8.246;2022-12-08T08:58:18;4.70;99.90
10702;DHT22;5402;50.004;8.246;2022-12-08T09:00:44;4.70;99.90
10702;DHT22;5402;50.004;8.246;2022-12-08T09:03:13;4.70;99.90
10702;DHT22;5402;50.004;8.246;2022-12-08T09:05:39;4.70;99.90
10702;DHT22;5402;50.004;8.246;2022-12-08T09:08:07;4.70;99.90
10702;DHT22;5402;50.004;8.246;2022-12-08T09:10:34;4.70;99.90
10702;DHT22;5402;50.004;8.246;2022-12-08T09:13:01;4.70;99.90
10702;DHT22;5402;50.004;8.246;2022-12-08T09:15:28;4.70;99.90
10702;DHT22;5402;50.004;8.246;2022-12-08T09:17:55;4.80;99.90
10702;DHT22;5402;50.004;8.246;2022-12-08T09:20:23;4.80;99.90
10702;DHT22;5402;50.004;8.246;2022-12-08T09:22:50;4.80;99.90
10702;DHT22;5402;50.004;8.246;2022-12-08T09:25:17;4.90;99.90
10702;DHT22;5402;50.004;8.246;2022-12-08T09:27:44;4.90;99.90
10702;DHT22;5402;50.004;8.246;2022-12-08T09:30:11;4.90;99.90
10702;DHT22;5402;50.004;8.246;2022-12-08T09:32:38;4.90;99.90
10702;DHT22;5402;50.004;8.246;2022-12-08T09:35:05;4.90;99.90
10702;DHT22;5402;50.004;8.246;2022-12-08T09:37:33;5.00;99.90
10702;DHT22;5402;50.004;8.246;2022-12-08T09:40:00;5.00;99.90
10702;DHT22;5402;50.004;8.246;2022-12-08T09:42:34;5.00;99.90
10702;DHT22;5402;50.004;8.246;2022-12-08T09:45:07;5.10;99.90
10702;DHT22;5402;50.004;8.246;2022-12-08T09:47:36;5.10;99.90
10702;DHT22;5402;50.004;8.246;2022-12-08T09:50:10;5.20;99.90
10702;DHT22;5402;50.004;8.246;2022-12-08T09:52:43;5.20;99.90
10702;DHT22;5402;50.004;8.246;2022-12-08T09:55:16;5.30;99.90
10702;DHT22;5402;50.004;8.246;2022-12-08T09:57:48;5.50;99.90
10702;DHT22;5402;50.004;8.246;2022-12-08T10:00:17;5.40;99.90
10702;DHT22;5402;50.004;8.246;2022-12-08T10:02:45;5.50;99.90
10702;DHT22;5402;50.004;8.246;2022-12-08T10:05:13;5.60;99.90
10702;DHT22;5402;50.004;8.246;2022-12-08T10:07:45;5.60;99.90
10702;DHT22;5402;50.004;8.246;2022-12-08T10:10:21;5.50;99.90
10702;DHT22;5402;50.004;8.246;2022-12-08T10:12:53;5.60;99.90
10702;DHT22;5402;50.004;8.246;2022-12-08T10:15:44;5.50;99.90
10702;DHT22;5402;50.004;8.246;2022-12-08T10:18:15;5.50;99.90
10702;DHT22;5402;50.004;8.246;2022-12-08T10:20:44;5.60;99.90
10702;DHT22;5402;50.004;8.246;2022-12-08T10:23:21;5.60;99.90
10702;DHT22;5402;50.004;8.246;2022-12-08T10:25:53;5.70;99.90
10702;DHT22;5402;50.004;8.246;2022-12-08T10:28:21;5.80;99.90
10702;DHT22;5402;50.004;8.246;2022-12-08T10:30:48;5.80;99.90
10702;DHT22;5402;50.004;8.246;2022-12-08T10:33:17;5.70;99.90
10702;DHT22;5402;50.004;8.246;2022-12-08T10:35:46;5.80;99.90
10702;DHT22;5402;50.004;8.246;2022-12-08T10:38:20;5.80;99.90
10702;DHT22;5402;50.004;8.246;2022-12-08T10:40:49;5.80;99.90
10702;DHT22;5402;50.004;8.246;2022-12-08T10:43:20;5.90;99.90
10702;DHT22;5402;50.004;8.246;2022-12-08T10:45:47;5.70;99.90
10702;DHT22;5402;50.004;8.246;2022-12-08T10:48:16;5.70;99.90
10702;DHT22;5402;50.004;8.246;2022-12-08T10:50:45;5.70;99.90
10702;DHT22;5402;50.004;8.246;2022-12-08T10:53:15;5.70;99.90
10702;DHT22;5402;50.004;8.246;2022-12-08T10:55:48;5.70;99.90
10702;DHT22;5402;50.004;8.246;2022-12-08T10:58:29;5.80;99.90
10702;DHT22;5402;50.004;8.246;2022-12-08T11:01:02;5.90;99.90
10702;DHT22;5402;50.004;8.246;2022-12-08T11:03:31;5.80;99.90
10702;DHT22;5402;50.004;8.246;2022-12-08T11:06:00;5.70;99.90
10702;DHT22;5402;50.004;8.246;2022-12-08T11:08:45;5.60;99.90
10702;DHT22;5402;50.004;8.246;2022-12-08T11:11:14;5.70;99.90
10702;DHT22;5402;50.004;8.246;2022-12-08T11:13:41;5.80;99.90
10702;DHT22;5402;50.004;8.246;2022-12-08T11:16:11;5.70;99.90
10702;DHT22;5402;50.004;8.246;2022-12-08T11:18:40;5.60;99.90
10702;DHT22;5402;50.004;8.246;2022-12-08T11:21:10;5.50;99.90
10702;DHT22;5402;50.004;8.246;2022-12-08T11:23:40;5.60;99.90
10702;DHT22;5402;50.004;8.246;2022-12-08T11:26:14;5.70;99.90
10702;DHT22;5402;50.004;8.246;2022-12-08T11:28:43;5.80;99.90
10702;DHT22;5402;50.004;8.246;2022-12-08T11:31:20;5.80;99.90
10702;DHT22;5402;50.004;8.246;2022-12-08T11:33:48;5.80;99.90
10702;DHT22;5402;50.004;8.246;2022-12-08T11:36:17;5.70;99.90
10702;DHT22;5402;50.004;8.246;2022-12-08T11:38:48;5.90;99.90
10702;DHT22;5402;50.004;8.246;2022-12-08T11:41:20;6.00;99.90
10702;DHT22;5402;50.004;8.246;2022-12-08T11:43:54;6.10;99.90
10702;DHT22;5402;50.004;8.246;2022-12-08T11:46:23;6.10;99.90
10702;DHT22;5402;50.004;8.246;2022-12-08T11:48:53;6.10;99.90
10702;DHT22;5402;50.004;8.246;2022-12-08T11:51:28;6.00;99.90
10702;DHT22;5402;50.004;8.246;2022-12-08T11:54:07;6.10;99.90
10702;DHT22;5402;50.004;8.246;2022-12-08T11:56:39;6.10;99.90
10702;DHT22;5402;50.004;8.246;2022-12-08T11:59:21;6.10;99.90
10702;DHT22;5402;50.004;8.246;2022-12-08T12:01:49;6.30;99.90
10702;DHT22;5402;50.004;8.246;2022-12-08T12:04:21;5.90;99.90
10702;DHT22;5402;50.004;8.246;2022-12-08T12:07:18;6.00;99.90
10702;DHT22;5402;50.004;8.246;2022-12-08T12:10:07;6.00;99.90
10702;DHT22;5402;50.004;8.246;2022-12-08T12:12:51;5.90;99.90
10702;DHT22;5402;50.004;8.246;2022-12-08T12:15:50;6.00;99.90
10702;DHT22;5402;50.004;8.246;2022-12-08T12:18:25;5.90;99.90
10702;DHT22;5402;50.004;8.246;2022-12-08T12:20:55;5.80;99.90
10702;DHT22;5402;50.004;8.246;2022-12-08T12:23:27;6.00;99.90
10702;DHT22;5402;50.004;8.246;2022-12-08T12:25:58;6.00;99.90
10702;DHT22;5402;50.004;8.246;2022-12-08T12:28:33;6.30;99.90
10702;DHT22;5402;50.004;8.246;2022-12-08T12:31:05;6.20;99.90
10702;DHT22;5402;50.004;8.246;2022-12-08T12:33:34;6.20;99.90
10702;DHT22;5402;50.004;8.246;2022-12-08T12:36:03;6.40;99.90
10702;DHT22;5402;50.004;8.246;2022-12-08T12:38:34;6.50;99.90
10702;DHT22;5402;50.004;8.246;2022-12-08T12:41:22;6.40;99.90
10702;DHT22;5402;50.004;8.246;2022-12-08T12:44:35;6.20;99.90
10702;DHT22;5402;50.004;8.246;2022-12-08T12:47:04;6.20;99.90
10702;DHT22;5402;50.004;8.246;2022-12-08T12:52:44;6.40;99.90
10702;DHT22;5402;50.004;8.246;2022-12-08T13:04:31;6.80;99.90
10702;DHT22;5402;50.004;8.246;2022-12-08T13:06:59;6.60;99.90
10702;DHT22;5402;50.004;8.246;2022-12-08T13:09:31;6.80;99.90
10702;DHT22;5402;50.004;8.246;2022-12-08T13:12:00;6.80;99.90
10702;DHT22;5402;50.004;8.246;2022-12-08T13:14:35;6.80;99.90
10702;DHT22;5402;50.004;8.246;2022-12-08T13:17:08;6.80;99.90
10702;DHT22;5402;50.004;8.246;2022-12-08T13:19:39;6.60;99.90
10702;DHT22;5402;50.004;8.246;2022-12-08T13:25:49;6.50;99.90
10702;DHT22;5402;50.004;8.246;2022-12-08T13:28:25;6.40;99.90
10702;DHT22;5402;50.004;8.246;2022-12-08T13:30:54;6.20;99.90
10702;DHT22;5402;50.004;8.246;2022-12-08T13:33:24;6.30;99.90
10702;DHT22;5402;50.004;8.246;2022-12-08T13:36:00;6.20;99.90
10702;DHT22;5402;50.004;8.246;2022-12-08T13:38:30;6.20;99.90
10702;DHT22;5402;50.004;8.246;2022-12-08T13:41:00;6.30;99.90
10702;DHT22;5402;50.004;8.246;2022-12-08T13:43:34;6.30;99.90
10702;DHT22;5402;50.004;8.246;2022-12-08T13:46:04;6.10;99.90
10702;DHT22;5402;50.004;8.246;2022-12-08T13:48:39;6.10;99.90
10702;DHT22;5402;50.004;8.246;2022-12-08T13:51:14;6.30;99.90
10702;DHT22;5402;50.004;8.246;2022-12-08T13:53:48;6.10;99.90
10702;DHT22;5402;50.004;8.246;2022-12-08T13:56:19;6.10;99.90
10702;DHT22;5402;50.004;8.246;2022-12-08T13:58:46;5.90;99.90
10702;DHT22;5402;50.004;8.246;2022-12-08T14:01:15;6.00;99.90
10702;DHT22;5402;50.004;8.246;2022-12-08T14:03:48;6.10;99.90
10702;DHT22;5402;50.004;8.246;2022-12-08T14:06:19;6.10;99.90
10702;DHT22;5402;50.004;8.246;2022-12-08T14:08:50;5.90;99.90
10702;DHT22;5402;50.004;8.246;2022-12-08T14:11:24;5.90;99.90
10702;DHT22;5402;50.004;8.246;2022-12-08T14:14:01;5.90;99.90
10702;DHT22;5402;50.004;8.246;2022-12-08T14:16:32;6.00;99.90
10702;DHT22;5402;50.004;8.246;2022-12-08T14:19:05;6.00;99.90
10702;DHT22;5402;50.004;8.246;2022-12-08T14:21:38;6.10;99.90
10702;DHT22;5402;50.004;8.246;2022-12-08T14:24:05;6.10;99.90
10702;DHT22;5402;50.004;8.246;2022-12-08T14:26:32;6.20;99.90
10702;DHT22;5402;50.004;8.246;2022-12-08T14:29:00;6.10;99.90
10702;DHT22;5402;50.004;8.246;2022-12-08T14:31:28;6.30;99.90
10702;DHT22;5402;50.004;8.246;2022-12-08T14:33:54;6.20;99.90
10702;DHT22;5402;50.004;8.246;2022-12-08T14:36:22;6.30;99.90
10702;DHT22;5402;50.004;8.246;2022-12-08T14:38:52;6.20;99.90
10702;DHT22;5402;50.004;8.246;2022-12-08T14:41:24;6.30;99.90
10702;DHT22;5402;50.004;8.246;2022-12-08T14:43:58;6.30;99.90
10702;DHT22;5402;50.004;8.246;2022-12-08T14:46:26;6.30;99.90
10702;DHT22;5402;50.004;8.246;2022-12-08T14:48:53;6.30;99.90
10702;DHT22;5402;50.004;8.246;2022-12-08T14:51:25;6.20;99.90
10702;DHT22;5402;50.004;8.246;2022-12-08T14:53:57;6.10;99.90
10702;DHT22;5402;50.004;8.246;2022-12-08T14:56:27;6.00;99.90
10702;DHT22;5402;50.004;8.246;2022-12-08T14:59:06;5.90;99.90
10702;DHT22;5402;50.004;8.246;2022-12-08T15:01:37;5.90;99.90
10702;DHT22;5402;50.004;8.246;2022-12-08T15:04:07;5.80;99.90
10702;DHT22;5402;50.004;8.246;2022-12-08T15:06:34;5.80;99.90
10702;DHT22;5402;50.004;8.246;2022-12-08T15:09:14;5.80;99.90
10702;DHT22;5402;50.004;8.246;2022-12-08T15:11:43;5.70;99.90
10702;DHT22;5402;50.004;8.246;2022-12-08T15:14:31;5.80;99.90
10702;DHT22;5402;50.004;8.246;2022-12-08T15:16:58;5.70;99.90
10702;DHT22;5402;50.004;8.246;2022-12-08T15:19:27;5.50;99.90
10702;DHT22;5402;50.004;8.246;2022-12-08T15:21:56;5.50;99.90
10702;DHT22;5402;50.004;8.246;2022-12-08T15:24:28;5.50;99.90
10702;DHT22;5402;50.004;8.246;2022-12-08T15:26:56;5.50;99.90
10702;DHT22;5402;50.004;8.246;2022-12-08T15:29:24;5.40;99.90
10702;DHT22;5402;50.004;8.246;2022-12-08T15:31:54;5.40;99.90
10702;DHT22;5402;50.004;8.246;2022-12-08T15:34:21;5.20;99.90
10702;DHT22;5402;50.004;8.246;2022-12-08T15:36:49;5.10;99.90
10702;DHT22;5402;50.004;8.246;2022-12-08T15:39:33;5.10;99.90
10702;DHT22;5402;50.004;8.246;2022-12-08T15:42:01;5.10;99.90
10702;DHT22;5402;50.004;8.246;2022-12-08T15:44:28;5.00;99.90
10702;DHT22;5402;50.004;8.246;2022-12-08T15:46:57;5.00;99.90
10702;DHT22;5402;50.004;8.246;2022-12-08T15:49:24;4.80;99.90
10702;DHT22;5402;50.004;8.246;2022-12-08T15:51:51;4.90;99.90
10702;DHT22;5402;50.004;8.246;2022-12-08T15:54:18;4.80;99.90
10702;DHT22;5402;50.004;8.246;2022-12-08T15:56:49;4.80;99.90
10702;DHT22;5402;50.004;8.246;2022-12-08T15:59:17;4.90;99.90
10702;DHT22;5402;50.004;8.246;2022-12-08T16:01:44;4.80;99.90
10702;DHT22;5402;50.004;8.246;2022-12-08T16:04:13;4.80;99.90
10702;DHT22;5402;50.004;8.246;2022-12-08T16:06:41;4.80;99.90
10702;DHT22;5402;50.004;8.246;2022-12-08T16:09:14;4.80;99.90
10702;DHT22;5402;50.004;8.246;2022-12-08T16:11:41;4.80;99.90
10702;DHT22;5402;50.004;8.246;2022-12-08T16:14:27;4.80;99.90
10702;DHT22;5402;50.004;8.246;2022-12-08T16:16:54;4.70;99.90
10702;DHT22;5402;50.004;8.246;2022-12-08T16:19:21;4.70;99.90
10702;DHT22;5402;50.004;8.246;2022-12-08T16:21:47;4.60;99.90
10702;DHT22;5402;50.004;8.246;2022-12-08T16:24:14;4.70;99.90
10702;DHT22;5402;50.004;8.246;2022-12-08T16:26:41;4.70;99.90
10702;DHT22;5402;50.004;8.246;2022-12-08T16:29:11;4.70;99.90
10702;DHT22;5402;50.004;8.246;2022-12-08T16:31:43;4.70;99.90
10702;DHT22;5402;50.004;8.246;2022-12-08T16:34:10;4.70;99.90
10702;DHT22;5402;50.004;8.246;2022-12-08T16:36:37;4.70;99.90